Time;durP1;ratioP1;P1;durP2;ratioP2;P2;SDS_P1;SDS_P2;PMS_P1;PMS_P2;Temp;Humidity;BMP_temperature;BMP_pressure;BME280_temperature;BME280_humidity;BME280_pressure;Samples;Min_cycle;Max_cycle;Signal;HPM_P1;HPM_P2
2022/05/05 00:01:38;;;;;;;8.05;7.18;;;;;;;10.15;64.58;101802.34;4930034;29;20554;-95
2022/05/05 00:04:44;;;;;;;7.80;6.53;;;;;;;10.15;65.95;101818.63;4926303;29;20035;-94
2022/05/05 00:07:17;;;;;;;7.20;6.50;;;;;;;10.13;68.34;101814.44;4940069;29;20035;-94
2022/05/05 00:14:23;;;;;;;7.10;6.40;;;;;;;10.06;68.19;101811.63;4925168;29;20038;-94
2022/05/05 00:16:07;;;;;;;7.68;6.93;;;;;;;10.06;65.60;101827.91;4944043;29;20093;-94
2022/05/05 00:18:57;;;;;;;7.95;7.13;;;;;;;9.92;69.06;101818.75;4923415;29;20496;-94
2022/05/05 00:21:46;;;;;;;7.72;6.93;;;;;;;9.90;68.15;101820.78;4956716;29;20035;-94
2022/05/05 00:24:57;;;;;;;9.10;6.65;;;;;;;9.86;66.69;101822.19;4942347;29;20039;-94
2022/05/05 00:27:52;;;;;;;7.20;6.50;;;;;;;9.81;67.50;101821.94;4929282;29;20043;-94
2022/05/05 00:30:52;;;;;;;7.90;7.10;;;;;;;9.83;66.72;101828.84;4926823;29;20039;-94
2022/05/05 00:33:41;;;;;;;7.97;6.75;;;;;;;9.86;69.39;101824.91;4956255;29;20043;-94
2022/05/05 00:36:38;;;;;;;8.05;7.25;;;;;;;9.80;68.95;101812.97;4894442;29;20052;-94
2022/05/05 00:39:29;;;;;;;;;;;;;;;;;;;;;
2022/05/05 00:42:08;;;;;;;7.95;6.82;;;;;;;9.86;69.23;101811.34;4937160;29;20453;-94
2022/05/05 00:44:54;;;;;;;7.55;6.75;;;;;;;9.89;68.95;101811.00;4903126;29;20036;-94
2022/05/05 00:47:30;;;;;;;;;;;;;;;;;;;;;
2022/05/05 00:50:06;;;;;;;7.85;7.00;;;;;;;10.01;71.52;101816.78;4937529;29;20030;-94
2022/05/05 00:52:34;;;;;;;8.13;7.25;;;;;;;9.97;71.00;101802.75;4905708;29;20040;-94
2022/05/05 00:55:18;;;;;;;8.43;6.85;;;;;;;9.97;70.75;101810.06;4903938;29;20047;-93
2022/05/05 00:58:13;;;;;;;7.88;7.05;;;;;;;10.00;69.07;101810.50;4920066;29;20043;-94
2022/05/05 01:03:59;;;;;;;8.05;6.78;;;;;;;9.93;68.56;101806.88;4923127;29;20103;-94
2022/05/05 01:06:44;;;;;;;7.57;6.82;;;;;;;9.96;67.37;101806.47;4904282;29;20102;-93
2022/05/05 01:09:49;;;;;;;;;;;;;;;;;;;;;
2022/05/05 01:12:31;;;;;;;;;;;;;;;;;;;;;
2022/05/05 01:16:01;;;;;;;;;;;;;;;;;;;;;
2022/05/05 01:19:01;;;;;;;;;;;;;;;;;;;;;
2022/05/05 01:29:06;;;;;;;;;;;;;;;;;;;;;
2022/05/05 01:32:19;;;;;;;;;;;;;;;;;;;;;
2022/05/05 01:42:00;;;;;;;;;;;;;;;;;;;;;
2022/05/05 01:45:21;;;;;;;;;;;;;;;;;;;;;
2022/05/05 01:56:03;;;;;;;;;;;;;;;;;;;;;
2022/05/05 01:59:16;;;;;;;6.20;5.60;;;;;;;10.28;68.50;101822.56;4844607;29;20132;-94
2022/05/05 02:02:13;;;;;;;;;;;;;;;;;;;;;
2022/05/05 02:07:25;;;;;;;6.78;6.07;;;;;;;10.19;69.25;101805.53;5052332;23;20055;-96
2022/05/05 02:10:03;;;;;;;8.20;6.63;;;;;;;10.22;68.98;101815.19;4942457;29;20023;-96
2022/05/05 02:12:33;;;;;;;7.22;6.38;;;;;;;10.21;69.39;101814.31;4943623;29;20051;-96
2022/05/05 02:15:04;;;;;;;7.82;7.03;;;;;;;10.24;69.70;101816.66;4942696;29;20074;-96
2022/05/05 02:17:48;;;;;;;7.22;6.50;;;;;;;10.28;68.17;101814.41;4942846;29;20070;-96
2022/05/05 02:20:24;;;;;;;7.47;6.53;;;;;;;10.29;69.20;101816.09;4942643;29;20039;-96
2022/05/05 02:23:15;;;;;;;7.50;6.70;;;;;;;10.30;68.79;101818.59;4929356;28;20035;-96
2022/05/05 02:25:54;;;;;;;7.63;6.68;;;;;;;10.34;69.47;101821.81;4978169;28;20487;-96
2022/05/05 02:28:23;;;;;;;7.60;6.80;;;;;;;10.32;69.22;101815.72;4961885;28;20062;-96
2022/05/05 02:30:53;;;;;;;7.03;6.32;;;;;;;10.38;69.01;101817.72;4961514;28;20484;-96
2022/05/05 02:33:28;;;;;;;7.05;6.30;;;;;;;10.39;68.58;101810.41;4962163;28;20027;-96
2022/05/05 02:38:58;;;;;;;;;;;;;;;;;;;;;
2022/05/05 02:41:36;;;;;;;7.68;6.88;;;;;;;10.60;68.51;101825.88;4980949;28;20035;-96
2022/05/05 02:44:05;;;;;;;8.05;7.13;;;;;;;10.61;68.57;101822.13;4931041;28;20031;-96
2022/05/05 02:46:43;;;;;;;8.88;6.85;;;;;;;10.62;67.99;101816.50;4961453;28;20075;-95
2022/05/05 02:49:31;;;;;;;8.73;7.15;;;;;;;10.66;66.90;101814.28;4961888;28;20030;-96
2022/05/05 02:52:12;;;;;;;8.45;7.50;;;;;;;10.64;68.08;101811.72;4962366;28;20070;-96
2022/05/05 02:54:51;;;;;;;7.88;7.07;;;;;;;10.63;68.68;101814.63;4947116;28;20027;-96
2022/05/05 02:57:43;;;;;;;;;;;;;;;;;;;;;
2022/05/05 03:00:22;;;;;;;9.50;7.88;;;;;;;10.61;67.67;101819.41;4966925;28;20128;-96
2022/05/05 03:02:58;;;;;;;9.02;7.60;;;;;;;10.61;67.81;101817.53;4950609;28;20103;-96
2022/05/05 03:08:47;;;;;;;;;;;;;;;;;;;;;
2022/05/05 03:11:25;;;;;;;;;;;;;;;;;;;;;
2022/05/05 03:14:17;;;;;;;8.00;7.20;;;;;;;10.55;68.51;101807.44;4967005;28;20562;-96
2022/05/05 03:16:50;;;;;;;8.93;7.87;;;;;;;10.52;68.06;101805.94;4965903;28;20054;-96
2022/05/05 03:19:44;;;;;;;8.10;7.30;;;;;;;10.53;67.11;101807.63;4950252;28;20038;-96
2022/05/05 03:22:43;;;;;;;7.97;7.18;;;;;;;10.50;67.61;101812.63;4935684;28;20065;-96
2022/05/05 03:25:34;;;;;;;8.45;7.18;;;;;;;10.50;66.54;101818.06;4963145;28;20097;-96
2022/05/05 03:28:43;;;;;;;7.75;7.00;;;;;;;10.48;67.62;101815.53;4961267;28;20031;-96
2022/05/05 03:31:28;;;;;;;;;;;;;;;;;;;;;
2022/05/05 03:34:06;;;;;;;;;;;;;;;;;;;;;
2022/05/05 03:36:36;;;;;;;8.55;7.53;;;;;;;10.38;68.63;101824.97;4962968;28;20030;-96
2022/05/05 03:39:09;;;;;;;7.93;7.13;;;;;;;10.35;69.12;101821.63;4960802;28;20097;-96
2022/05/05 03:41:42;;;;;;;8.57;7.70;;;;;;;10.38;68.24;101833.13;4960185;28;20085;-96
2022/05/05 03:44:17;;;;;;;8.30;7.30;;;;;;;10.37;68.04;101826.03;4943976;28;20051;-96
2022/05/05 03:46:54;;;;;;;8.50;7.15;;;;;;;10.44;68.58;101837.81;4945877;28;20082;-96
2022/05/05 03:49:41;;;;;;;;;;;;;;;;;;;;;
2022/05/05 03:52:37;;;;;;;;;;;;;;;;;;;;;
2022/05/05 03:55:39;;;;;;;;;;;;;;;;;;;;;
2022/05/05 03:58:12;;;;;;;8.55;7.75;;;;;;;10.56;67.50;101838.16;4987122;28;20114;-96
2022/05/05 04:04:18;;;;;;;9.40;8.05;;;;;;;10.49;66.53;101846.22;4974715;28;20077;-96
2022/05/05 04:09:53;;;;;;;9.02;8.13;;;;;;;10.50;67.79;101845.19;4980292;28;20034;-95
2022/05/05 04:18:23;;;;;;;10.15;8.90;;;;;;;10.57;67.26;101864.25;4970943;28;20043;-96
2022/05/05 04:21:16;;;;;;;9.73;8.10;;;;;;;10.49;66.72;101859.78;4962784;28;20039;-96
2022/05/05 04:23:53;;;;;;;9.57;7.63;;;;;;;10.56;67.23;101858.00;4953554;28;20058;-96
2022/05/05 04:26:45;;;;;;;9.70;8.35;;;;;;;10.53;67.21;101859.19;4953217;28;20031;-96
2022/05/05 04:29:41;;;;;;;10.25;8.10;;;;;;;10.52;67.01;101854.78;4974682;28;20034;-96
2022/05/05 04:32:46;;;;;;;10.43;8.13;;;;;;;10.60;67.27;101859.28;4963027;28;20039;-96
2022/05/05 04:36:09;;;;;;;;;;;;;;;;;;;;;
2022/05/05 04:38:44;;;;;;;8.90;7.95;;;;;;;10.63;68.41;101860.75;4992642;28;20130;-96
2022/05/05 04:41:50;;;;;;;10.25;8.95;;;;;;;10.72;67.09;101862.34;4977270;28;20046;-96
2022/05/05 04:45:10;;;;;;;;;;;;;;;;;;;;;
2022/05/05 04:48:12;;;;;;;9.38;8.38;;;;;;;10.78;67.68;101858.03;4979553;28;20575;-96
2022/05/05 04:50:50;;;;;;;;;;;;;;;;;;;;;
2022/05/05 04:53:34;;;;;;;;;;;;;;;;;;;;;
2022/05/05 04:59:29;;;;;;;10.15;8.25;;;;;;;10.84;67.22;101871.66;4977153;28;20049;-96
2022/05/05 05:02:04;;;;;;;8.55;7.65;;;;;;;10.88;67.66;101888.44;4946141;28;20435;-96
2022/05/05 05:05:06;;;;;;;10.05;9.02;;;;;;;10.78;67.97;101877.03;4931167;28;20039;-96
2022/05/05 05:07:42;;;;;;;10.03;9.03;;;;;;;10.77;67.44;101876.16;4890843;29;20084;-90
2022/05/05 05:10:19;;;;;;;9.27;8.27;;;;;;;10.86;67.36;101888.59;4958866;28;20030;-91
2022/05/05 05:12:57;;;;;;;11.02;8.77;;;;;;;10.87;68.38;101895.72;4942568;28;20035;-92
2022/05/05 05:15:34;;;;;;;9.85;8.63;;;;;;;10.90;68.94;101891.78;4944422;28;20054;-90
2022/05/05 05:18:03;;;;;;;8.95;8.05;;;;;;;10.84;70.55;101898.81;4941402;28;20046;-90
2022/05/05 05:20:36;;;;;;;9.40;8.23;;;;;;;10.91;69.34;101903.47;4958278;28;20035;-89
2022/05/05 05:23:06;;;;;;;10.27;8.52;;;;;;;10.88;68.55;101902.84;4926855;28;20043;-90
2022/05/05 05:25:32;;;;;;;10.13;8.48;;;;;;;10.91;68.54;101895.31;4941683;28;20066;-90
2022/05/05 05:28:13;;;;;;;;;;;;;;;;;;;;;
2022/05/05 05:31:19;;;;;;;;;;;;;;;;;;;;;
2022/05/05 05:34:03;;;;;;;;;;;;;;;;;;;;;
2022/05/05 05:36:34;;;;;;;9.45;8.43;;;;;;;10.85;68.63;101911.38;4979051;28;20459;-91
2022/05/05 05:39:22;;;;;;;9.32;8.35;;;;;;;10.84;68.86;101914.28;4961812;28;20066;-90
2022/05/05 05:41:52;;;;;;;9.75;8.73;;;;;;;10.93;70.01;101910.41;4948065;28;20472;-90
2022/05/05 05:47:50;;;;;;;10.38;9.27;;;;;;;11.06;67.36;101915.16;4964899;28;20430;-91
2022/05/05 05:50:28;;;;;;;;;;;;;;;;;;;;;
2022/05/05 05:53:02;;;;;;;10.80;9.40;;;;;;;11.11;68.67;101922.72;4963135;28;20033;-89
2022/05/05 05:55:41;;;;;;;10.10;9.05;;;;;;;11.12;69.27;101917.09;4960804;28;20097;-90
2022/05/05 05:58:12;;;;;;;9.77;8.32;;;;;;;11.15;69.14;101918.59;4961578;28;20121;-90
2022/05/05 06:00:47;;;;;;;10.50;8.85;;;;;;;11.19;69.51;101909.84;4961164;28;20077;-89
2022/05/05 06:06:05;;;;;;;11.65;8.73;;;;;;;11.31;68.06;101926.47;4978453;28;20094;-89
2022/05/05 06:08:41;;;;;;;9.48;8.48;;;;;;;11.27;68.44;101919.75;4944765;28;20039;-91
2022/05/05 06:11:16;;;;;;;;;;;;;;;;;;;;;
2022/05/05 06:14:05;;;;;;;;;;;;;;;;;;;;;
2022/05/05 06:16:30;;;;;;;10.30;8.45;;;;;;;11.38;68.68;101930.09;4978926;28;20039;-89
2022/05/05 06:19:01;;;;;;;9.68;8.50;;;;;;;11.43;68.53;101924.06;4960865;28;20049;-88
2022/05/05 06:21:29;;;;;;;11.75;9.70;;;;;;;11.51;67.72;101928.53;4960265;28;20030;-87
2022/05/05 06:24:06;;;;;;;11.02;9.10;;;;;;;11.64;68.05;101941.41;4968148;28;20027;-95
2022/05/05 06:26:35;;;;;;;11.90;8.65;;;;;;;11.63;66.71;101934.28;4964250;28;20044;-96
2022/05/05 06:29:36;;;;;;;;;;;;;;;;;;;;;
2022/05/05 06:32:17;;;;;;;;;;;;;;;;;;;;;
2022/05/05 06:34:50;;;;;;;9.55;8.00;;;;;;;11.87;64.91;101942.03;4968558;28;20098;-96
2022/05/05 06:37:27;;;;;;;9.20;8.25;;;;;;;11.90;63.04;101944.34;4956791;28;20046;-95
2022/05/05 06:40:21;;;;;;;8.57;7.55;;;;;;;11.98;63.35;101932.50;4972135;28;20100;-95
2022/05/05 06:42:52;;;;;;;9.98;8.68;;;;;;;12.07;63.72;101941.34;4965200;28;20486;-95
2022/05/05 06:45:18;;;;;;;10.30;8.48;;;;;;;12.16;63.66;101942.03;4962797;28;20041;-96
2022/05/05 06:48:02;;;;;;;;;;;;;;;;;;;;;
2022/05/05 06:50:51;;;;;;;10.13;8.77;;;;;;;12.27;63.11;101936.06;4964210;28;20031;-95
2022/05/05 06:53:36;;;;;;;;;;;;;;;;;;;;;
2022/05/05 06:56:27;;;;;;;11.23;9.55;;;;;;;12.39;63.33;101945.31;4987737;28;20122;-96
2022/05/05 06:59:26;;;;;;;13.00;10.75;;;;;;;12.49;63.14;101934.06;4948429;28;20031;-96
2022/05/05 07:02:12;;;;;;;17.38;13.90;;;;;;;12.53;63.85;101938.06;4961396;28;20065;-96
2022/05/05 07:11:26;;;;;;;21.60;18.00;;;;;;;12.98;64.09;101954.81;4967828;28;20046;-96
2022/05/05 07:14:11;;;;;;;;;;;;;;;;;;;;;
2022/05/05 07:17:28;;;;;;;24.13;18.95;;;;;;;13.31;62.76;101956.75;4973458;28;20098;-96
2022/05/05 07:20:35;;;;;;;23.63;18.13;;;;;;;13.51;62.77;101967.75;4966505;28;20114;-96
2022/05/05 07:23:06;;;;;;;22.70;17.98;;;;;;;13.71;63.30;101964.19;4961261;28;20031;-96
2022/05/05 07:25:34;;;;;;;26.67;21.92;;;;;;;13.90;62.17;101972.59;4962959;28;20480;-96
2022/05/05 07:28:05;;;;;;;25.60;22.00;;;;;;;13.89;62.24;101977.19;4947134;29;20038;-96
2022/05/05 07:30:36;;;;;;;27.33;23.02;;;;;;;13.90;62.88;101969.88;4942119;29;20035;-96
2022/05/05 07:33:10;;;;;;;28.77;24.27;;;;;;;13.88;62.15;101978.25;4926782;29;20040;-96
2022/05/05 07:36:18;;;;;;;26.13;21.60;;;;;;;13.99;62.23;101979.50;4967258;29;20039;-96
2022/05/05 07:38:55;;;;;;;23.63;19.85;;;;;;;14.09;61.77;101979.09;4943304;29;20070;-96
2022/05/05 07:41:36;;;;;;;27.20;23.00;;;;;;;14.15;61.49;101981.81;4937764;29;20031;-88
2022/05/05 07:44:42;;;;;;;27.10;23.80;;;;;;;14.31;61.37;101985.16;4941815;29;20042;-95
2022/05/05 07:47:10;;;;;;;27.55;22.88;;;;;;;14.31;61.39;101982.44;4941091;29;20062;-95
2022/05/05 07:49:40;;;;;;;25.85;23.05;;;;;;;14.38;61.01;101986.00;4941371;29;20542;-96
2022/05/05 07:52:22;;;;;;;27.55;22.88;;;;;;;14.63;60.58;101988.03;4958631;28;20125;-94
2022/05/05 07:54:53;;;;;;;24.08;21.05;;;;;;;15.11;59.66;101984.09;4941835;29;20027;-95
2022/05/05 07:57:27;;;;;;;22.60;18.75;;;;;;;15.75;58.41;101980.31;4926228;29;20122;-96
2022/05/05 08:00:12;;;;;;;20.17;16.50;;;;;;;16.40;57.41;101986.47;4925403;29;20035;-96
2022/05/05 09:08:15;;;;;;;18.73;14.55;;;;;;;19.75;46.97;102022.88;5006074;23;20519;-96
2022/05/05 09:10:50;;;;;;;19.50;15.57;;;;;;;19.94;46.34;102023.50;5026105;23;20112;-94
2022/05/05 09:13:24;;;;;;;17.40;13.98;;;;;;;20.18;46.48;102037.13;4979140;28;20042;-85
2022/05/05 09:16:30;;;;;;;17.92;13.88;;;;;;;20.25;45.71;102027.59;4979269;28;20095;-96
2022/05/05 09:19:30;;;;;;;17.67;13.60;;;;;;;20.27;46.04;102028.19;5010047;28;20098;-96
2022/05/05 09:22:16;;;;;;;15.88;12.68;;;;;;;20.24;44.74;102033.34;4978951;28;20096;-96
2022/05/05 09:28:51;;;;;;;18.85;14.80;;;;;;;20.06;46.28;102040.78;4994227;28;20066;-96
2022/05/05 09:31:50;;;;;;;19.80;16.77;;;;;;;19.82;46.55;102044.78;4984479;28;20042;-96
2022/05/05 09:35:10;;;;;;;;;;;;;;;;;;;;;
2022/05/05 09:42:02;;;;;;;22.15;18.48;;;;;;;19.57;47.11;102043.22;5014075;28;20038;-96
2022/05/05 09:51:23;;;;;;;17.52;13.95;;;;;;;20.92;44.76;102047.00;4881398;29;20497;-96
2022/05/05 10:00:55;;;;;;;;;;;;;;;;;;;;;
2022/05/05 10:04:19;;;;;;;;;;;;;;;;;;;;;
2022/05/05 10:07:34;;;;;;;18.27;14.00;;;;;;;22.00;42.43;102048.22;4992735;28;20073;-96
2022/05/05 10:10:27;;;;;;;18.00;14.20;;;;;;;22.17;42.22;102062.69;4899698;29;20073;-96
2022/05/05 10:12:59;;;;;;;20.30;16.88;;;;;;;22.11;40.63;102049.94;4878032;29;20081;-96
2022/05/05 10:15:47;;;;;;;18.25;14.63;;;;;;;22.16;40.47;102050.00;4870781;29;20049;-95
2022/05/05 10:18:18;;;;;;;15.02;12.75;;;;;;;22.42;40.87;102052.97;4858934;29;20097;-96
2022/05/05 10:20:56;;;;;;;17.52;14.23;;;;;;;22.56;40.71;102048.63;4867928;29;20049;-96
2022/05/05 10:24:17;;;;;;;16.10;13.43;;;;;;;22.81;40.36;102063.72;4868437;29;20124;-94
2022/05/05 10:27:01;;;;;;;;;;;;;;;;;;;;;
2022/05/05 10:30:04;;;;;;;18.83;15.50;;;;;;;22.75;39.11;102054.56;5000270;28;20129;-96
2022/05/05 10:35:49;;;;;;;19.42;15.93;;;;;;;23.27;38.94;102054.81;4973532;28;20109;-96
2022/05/05 10:39:27;;;;;;;16.92;14.07;;;;;;;23.37;37.95;102051.22;4990113;28;20031;-96
2022/05/05 10:46:22;;;;;;;16.70;13.07;;;;;;;24.38;37.87;102057.13;4871943;29;20041;-96
2022/05/05 10:49:08;;;;;;;;;;;;;;;;;;;;;
2022/05/05 10:52:14;;;;;;;14.40;11.90;;;;;;;24.94;36.39;102047.00;4938149;29;20508;-96
2022/05/05 10:55:17;;;;;;;12.98;10.73;;;;;;;25.41;35.48;102051.25;4930982;29;20107;-96
2022/05/05 10:57:54;;;;;;;;;;;;;;;;;;;;;
2022/05/05 11:00:58;;;;;;;16.88;13.40;;;;;;;25.90;34.04;102046.72;4992488;28;20090;-96
2022/05/05 11:03:27;;;;;;;18.20;14.38;;;;;;;25.87;32.85;102041.75;4989622;28;20034;-96
2022/05/05 11:06:28;;;;;;;16.15;13.27;;;;;;;25.97;34.17;102038.88;4989921;28;20034;-96
2022/05/05 11:09:30;;;;;;;15.65;11.20;;;;;;;26.44;33.52;102048.47;4974447;28;20038;-96
2022/05/05 11:12:15;;;;;;;;;;;;;;;26.79;33.15;102051.16;4988830;28;20050;-96
2022/05/05 11:24:49;;;;;;;12.93;10.70;;;;;;;28.50;29.97;102047.47;5007060;28;20113;-96
2022/05/05 11:27:49;;;;;;;;;;;;;;;;;;;;;
2022/05/05 11:31:14;;;;;;;;;;;;;;;;;;;;;
2022/05/05 11:34:03;;;;;;;;;;;;;;;;;;;;;
2022/05/05 11:51:48;;;;;;;12.45;10.18;;;;;;;32.67;24.15;102031.13;4878075;29;20057;-91
2022/05/05 12:04:40;;;;;;;;;;;;;;;;;;;;;
2022/05/05 12:07:19;;;;;;;9.13;6.95;;;;;;;39.17;17.18;102008.06;5010277;28;20049;-96
2022/05/05 12:10:49;;;;;;;8.57;7.15;;;;;;;38.04;18.29;102018.00;5016637;28;20026;-96
2022/05/05 12:14:16;;;;;;;;;;;;;;;;;;;;;
2022/05/05 12:17:21;;;;;;;;;;;;;;;;;;;;;
2022/05/05 12:20:17;;;;;;;;;;;;;;;;;;;;;
2022/05/05 12:23:35;;;;;;;;;;;;;;;;;;;;;
2022/05/05 12:26:17;;;;;;;8.32;7.53;;;;;;;35.25;20.27;102003.22;4911039;29;20063;-96
2022/05/05 12:36:20;;;;;;;;;;;;;;;;;;;;;
2022/05/05 12:45:50;;;;;;;;;;;;;;;;;;;;;
2022/05/05 12:49:08;;;;;;;;;;;;;;;;;;;;;
2022/05/05 13:01:34;;;;;;;7.43;6.72;;;;;;;33.21;20.20;102004.34;4954104;28;20046;-96
2022/05/05 13:04:10;;;;;;;8.30;7.43;;;;;;;32.29;21.19;102001.03;4981380;28;20467;-96
2022/05/05 13:06:45;;;;;;;7.30;6.70;;;;;;;31.47;21.51;102009.41;4978671;28;20032;-96
2022/05/05 13:09:12;;;;;;;8.70;6.95;;;;;;;30.87;21.73;102002.59;4962738;28;20065;-96
2022/05/05 13:11:52;;;;;;;6.97;6.28;;;;;;;30.35;22.69;102004.03;4977946;28;20054;-96
2022/05/05 13:14:22;;;;;;;10.82;9.02;;;;;;;29.39;23.96;102000.63;4978348;28;20096;-96
2022/05/05 13:16:52;;;;;;;9.20;8.30;;;;;;;29.19;24.34;101990.75;4962160;28;20089;-96
2022/05/05 13:19:51;;;;;;;9.05;7.65;;;;;;;29.10;24.88;102003.78;4977861;28;20032;-96
2022/05/05 13:22:22;;;;;;;7.68;6.63;;;;;;;28.73;25.68;102006.56;4977371;28;20565;-96
2022/05/05 13:25:05;;;;;;;9.13;8.23;;;;;;;28.23;26.23;102012.81;4978214;28;20069;-96
2022/05/05 13:27:43;;;;;;;8.88;7.97;;;;;;;27.75;26.43;102007.50;4948016;28;20281;-96
2022/05/05 13:30:26;;;;;;;11.63;10.43;;;;;;;27.42;27.26;102001.91;4978461;28;20065;-96
2022/05/05 13:33:13;;;;;;;11.43;10.20;;;;;;;27.23;27.32;102013.00;4949073;28;20035;-96
2022/05/05 13:35:43;;;;;;;13.27;11.15;;;;;;;27.14;27.83;102008.09;4963328;28;20133;-96
2022/05/05 13:38:41;;;;;;;;;;;;;;;;;;;;;
2022/05/05 13:41:11;;;;;;;12.68;11.35;;;;;;;26.73;28.60;102003.06;4980026;28;20043;-96
2022/05/05 13:44:07;;;;;;;12.77;10.88;;;;;;;26.67;28.91;102006.19;4962392;28;20042;-96
2022/05/05 13:46:53;;;;;;;;;;;;;;;;;;;;;
2022/05/05 13:49:28;;;;;;;13.30;11.52;;;;;;;27.02;28.10;102015.22;4980759;28;20045;-96
2022/05/05 13:52:47;;;;;;;;;;;;;;;;;;;;;
2022/05/05 13:58:16;;;;;;;12.65;10.65;;;;;;;26.72;28.84;102009.78;4988157;28;20386;-96
2022/05/05 14:00:46;;;;;;;13.55;10.77;;;;;;;26.64;29.30;102020.72;4981404;28;20467;-96
2022/05/05 14:03:22;;;;;;;12.07;9.95;;;;;;;26.73;28.73;102018.97;4981445;28;20041;-96
2022/05/05 14:06:21;;;;;;;10.50;9.40;;;;;;;26.73;28.82;102019.78;4965765;28;20038;-96
2022/05/05 14:12:23;;;;;;;15.07;11.65;;;;;;;27.22;28.29;102008.56;4987820;28;20148;-96
2022/05/05 14:15:12;;;;;;;12.73;11.15;;;;;;;27.32;28.20;102016.78;4943934;28;20050;-96
2022/05/05 14:18:24;;;;;;;13.75;10.85;;;;;;;27.45;27.84;102007.69;4987911;28;20069;-96
2022/05/05 14:21:26;;;;;;;17.27;14.55;;;;;;;26.79;28.68;102024.16;4967254;28;20050;-96
2022/05/05 14:27:29;;;;;;;12.35;10.40;;;;;;;27.57;27.52;102015.56;4970768;28;20038;-96
2022/05/05 14:30:16;;;;;;;12.13;9.57;;;;;;;27.66;27.15;102016.53;4983501;28;20034;-96
2022/05/05 14:33:02;;;;;;;11.48;10.13;;;;;;;28.00;27.05;102015.44;4956471;28;20030;-96
2022/05/05 14:35:49;;;;;;;15.02;13.43;;;;;;;27.96;27.23;102011.59;4969591;28;20072;-96
2022/05/05 14:38:57;;;;;;;9.25;8.35;;;;;;;28.19;27.40;102025.72;4983245;28;20102;-96
2022/05/05 14:42:25;;;;;;;10.02;9.05;;;;;;;30.42;24.89;102014.81;4972317;28;20034;-96
2022/05/05 14:45:17;;;;;;;10.90;9.18;;;;;;;30.90;23.37;102016.78;5003201;28;20450;-96
2022/05/05 14:47:48;;;;;;;8.63;7.72;;;;;;;30.68;23.87;102019.66;4969849;28;20042;-96
2022/05/05 14:50:26;;;;;;;8.57;7.73;;;;;;;30.71;23.92;102016.22;4982352;28;20042;-96
2022/05/05 14:53:23;;;;;;;9.35;8.45;;;;;;;31.01;23.77;102020.13;4950920;28;20542;-95
2022/05/05 14:56:04;;;;;;;9.43;8.45;;;;;;;31.26;23.04;102014.88;4980626;28;20030;-95
2022/05/05 14:58:43;;;;;;;8.13;6.80;;;;;;;31.80;21.96;102014.53;4965407;28;20030;-96
2022/05/05 15:09:05;;;;;;;;;;;;;;;;;;;;;
2022/05/05 15:17:04;;;;;;;10.25;8.88;;;;;;;31.38;21.85;102014.22;4974198;28;20074;-96
2022/05/05 15:19:39;;;;;;;10.23;8.23;;;;;;;30.88;22.96;102009.84;4939107;29;20051;-96
2022/05/05 15:23:02;;;;;;;8.25;7.15;;;;;;;31.58;22.00;102013.59;4934987;29;20039;-96
2022/05/05 15:25:11;;;;;;;7.20;6.50;;;;;;;32.42;20.68;102007.59;4936243;29;20047;-96
2022/05/05 15:27:49;;;;;;;7.07;6.43;;;;;;;32.09;21.13;102013.78;4914393;29;20148;-94
2022/05/05 15:30:19;;;;;;;8.15;7.35;;;;;;;31.48;21.73;102008.28;4942112;29;20066;-96
2022/05/05 15:32:57;;;;;;;6.78;6.18;;;;;;;30.99;22.06;102015.97;4941860;29;20062;-96
2022/05/05 15:35:25;;;;;;;7.07;6.38;;;;;;;31.04;22.53;102004.63;4927839;29;20027;-96
2022/05/05 15:37:55;;;;;;;7.03;6.43;;;;;;;31.07;22.52;102007.59;4941193;29;20170;-96
2022/05/05 15:40:23;;;;;;;6.90;6.28;;;;;;;31.46;22.18;102007.75;4944378;29;20072;-96
2022/05/05 15:42:49;;;;;;;6.78;6.10;;;;;;;31.42;22.00;102007.63;4927263;29;20081;-96
2022/05/05 15:45:26;;;;;;;6.57;5.97;;;;;;;30.98;22.44;102008.72;4939041;29;20044;-96
2022/05/05 15:48:06;;;;;;;6.40;5.80;;;;;;;30.44;22.67;102006.91;4911954;29;20063;-96
2022/05/05 15:50:40;;;;;;;6.60;5.47;;;;;;;30.31;23.03;102005.88;4925353;29;20034;-96
2022/05/05 15:53:05;;;;;;;5.57;5.07;;;;;;;30.39;23.31;102019.06;4933341;29;20040;-96
2022/05/05 15:55:36;;;;;;;7.25;6.47;;;;;;;30.51;22.59;102007.28;4918636;29;20070;-96
2022/05/05 15:58:09;;;;;;;6.38;5.75;;;;;;;29.89;23.02;102010.91;4933869;29;20056;-96
2022/05/05 16:00:43;;;;;;;5.90;5.40;;;;;;;29.11;23.57;102017.44;4928975;29;20473;-96
2022/05/05 16:03:24;;;;;;;;;;;;;;;;;;;;;
2022/05/05 16:05:55;;;;;;;7.57;6.65;;;;;;;27.59;25.58;102012.47;4940093;29;20039;-96
2022/05/05 16:08:32;;;;;;;5.72;5.18;;;;;;;27.28;26.01;102016.56;4921237;29;20365;-96
2022/05/05 16:11:03;;;;;;;7.38;6.68;;;;;;;27.36;26.04;102023.44;4938386;29;20086;-96
2022/05/05 16:13:29;;;;;;;6.18;5.57;;;;;;;27.52;26.21;102020.41;4905291;29;20038;-96
2022/05/05 16:15:57;;;;;;;5.85;5.35;;;;;;;27.82;26.11;102021.88;4921507;29;20130;-96
2022/05/05 16:21:19;;;;;;;5.80;5.20;;;;;;;27.33;26.25;102020.38;4938115;29;20054;-96
2022/05/05 16:23:52;;;;;;;6.07;5.47;;;;;;;27.06;26.57;102024.66;4906534;29;20048;-96
2022/05/05 16:32:01;;;;;;;5.60;5.10;;;;;;;26.36;27.57;102042.72;4938444;29;20107;-96
2022/05/05 16:34:27;;;;;;;6.78;5.88;;;;;;;26.09;28.23;102038.53;4906978;29;20507;-96
2022/05/05 16:36:54;;;;;;;5.40;4.90;;;;;;;26.15;28.47;102031.78;4920674;29;20036;-96
2022/05/05 16:39:25;;;;;;;5.95;5.35;;;;;;;26.26;27.87;102038.94;4920815;29;20036;-96
2022/05/05 16:41:58;;;;;;;5.68;5.10;;;;;;;26.43;27.68;102040.41;4922536;29;20047;-95
2022/05/05 16:44:51;;;;;;;;;;;;;;;;;;;;;
2022/05/05 16:48:37;;;;;;;;;;;;;;;;;;;;;
2022/05/05 16:52:02;;;;;;;4.97;4.57;;;;;;;26.63;27.28;102024.63;4847044;29;20569;-96
2022/05/05 16:54:58;;;;;;;5.15;4.45;;;;;;;26.48;27.43;102036.75;4845443;29;20041;-96
2022/05/05 16:58:12;;;;;;;;;;;;;;;;;;;;;
2022/05/05 17:01:13;;;;;;;;;;;;;;;;;;;;;
2022/05/05 17:03:51;;;;;;;4.90;4.50;;;;;;;26.84;27.54;102026.06;4867529;29;20073;-96
2022/05/05 17:06:43;;;;;;;;;;;;;;;;;;;;;
2022/05/05 17:10:12;;;;;;;5.20;4.70;;;;;;;26.83;27.75;102032.75;4917905;29;20063;-96
2022/05/05 17:13:23;;;;;;;;;;;;;;;;;;;;;
2022/05/05 17:16:30;;;;;;;;;;;;;;;;;;;;;
2022/05/05 17:23:27;;;;;;;7.53;5.90;;;;;;;26.85;27.23;102043.59;4940815;29;20048;-96
2022/05/05 17:26:07;;;;;;;5.97;5.18;;;;;;;26.57;27.65;102035.78;4933166;29;20091;-96
2022/05/05 17:29:08;;;;;;;;;;;;;;;;;;;;;
2022/05/05 17:32:03;;;;;;;;;;;;;;;;;;;;;
2022/05/05 17:38:26;;;;;;;;;;;;;;;;;;;;;
2022/05/05 17:53:03;;;;;;;6.28;5.38;;;;;;;23.15;31.99;102062.50;4960816;29;20115;-96
2022/05/05 17:55:52;;;;;;;5.90;5.30;;;;;;;22.76;33.26;102061.75;4992839;28;20098;-96
2022/05/05 17:59:26;;;;;;;6.40;5.80;;;;;;;22.35;33.26;102071.72;4959790;29;20031;-96
2022/05/05 18:02:18;;;;;;;6.75;5.70;;;;;;;21.84;35.10;102077.63;4957410;29;20047;-96
2022/05/05 18:19:21;;;;;;;7.60;6.75;;;;;;;20.49;38.05;102086.13;4888857;29;20037;-96
2022/05/05 18:22:14;;;;;;;7.88;7.03;;;;;;;20.40;40.90;102109.66;4961383;29;20054;-96
2022/05/05 18:25:25;;;;;;;;;;;;;;;;;;;;;
2022/05/05 18:28:12;;;;;;;10.38;8.57;;;;;;;20.03;42.80;102095.56;4939098;29;20078;-96
2022/05/05 18:31:57;;;;;;;10.50;9.15;;;;;;;19.75;40.98;102109.09;4928288;29;20044;-96
2022/05/05 18:34:45;;;;;;;;;;;;;;;;;;;;;
2022/05/05 18:38:16;;;;;;;;;;;;;;;;;;;;;
2022/05/05 18:43:54;;;;;;;;;;;;;;;;;;;;;
2022/05/05 18:46:42;;;;;;;;;;;;;;;;;;;;;
2022/05/05 18:49:46;;;;;;;;;;;;;;;;;;;;;
2022/05/05 18:52:36;;;;;;;11.73;10.52;;;;;;;18.23;47.04;102120.00;4919808;29;20080;-96
2022/05/05 18:55:31;;;;;;;;;;;;;;;;;;;;;
2022/05/05 18:58:34;;;;;;;15.32;13.13;;;;;;;17.91;48.90;102135.91;4936714;29;20123;-96
2022/05/05 19:04:43;;;;;;;;;;;;;;;;;;;;;
2022/05/05 19:08:22;;;;;;;;;;;;;;;;;;;;;
2022/05/05 19:11:22;;;;;;;;;;;;;;;;;;;;;
2022/05/05 19:27:14;;;;;;;;;;;;;;;;;;;;;
2022/05/05 19:30:54;;;;;;;18.38;13.40;;;;;;;16.23;52.95;102170.53;4888443;29;20100;-96
2022/05/05 19:33:20;;;;;;;21.30;13.13;;;;;;;16.14;56.55;102177.34;4857645;29;20067;-96
2022/05/05 19:39:34;;;;;;;21.95;14.75;;;;;;;16.00;55.81;102183.94;4881154;29;20036;-96
2022/05/05 19:42:16;;;;;;;23.35;15.77;;;;;;;15.93;56.75;102186.72;4856378;29;20029;-96
2022/05/05 19:44:55;;;;;;;18.40;13.57;;;;;;;15.79;58.88;102196.88;4863844;29;20130;-96
2022/05/05 19:51:02;;;;;;;21.67;14.48;;;;;;;15.67;56.06;102215.03;4861984;29;20052;-96
2022/05/05 19:53:50;;;;;;;;;;;;;;;;;;;;;
2022/05/05 20:03:02;;;;;;;;;;;;;;;;;;;;;
2022/05/05 20:12:21;;;;;;;;;;;;;;;;;;;;;
2022/05/05 20:15:32;;;;;;;;;;;;;;;;;;;;;